createdAt,value
2019-05-12T00:01:18.802Z,16.14
2019-05-12T00:03:53.341Z,15.81
2019-05-12T00:06:28.422Z,15.51
2019-05-12T00:09:02.734Z,15.25
2019-05-12T00:11:37.885Z,15.00
2019-05-12T00:14:12.054Z,17.29
2019-05-12T00:16:46.056Z,18.21
2019-05-12T00:19:19.857Z,17.28
2019-05-12T00:21:53.849Z,16.49
2019-05-12T00:24:28.057Z,15.94
2019-05-12T00:27:04.948Z,15.51
2019-05-12T00:29:38.829Z,15.18
2019-05-12T00:32:13.131Z,14.88
2019-05-12T00:34:48.058Z,16.94
2019-05-12T00:37:22.949Z,17.93
2019-05-12T00:39:59.275Z,16.94
2019-05-12T00:42:33.811Z,16.16
2019-05-12T00:45:08.714Z,15.61
2019-05-12T00:47:43.828Z,15.17
2019-05-12T00:50:20.657Z,14.83
2019-05-12T00:52:57.999Z,14.52
2019-05-12T00:55:38.871Z,15.84
2019-05-12T00:58:31.676Z,18.93
2019-05-12T01:01:25.510Z,18.04
2019-05-12T01:04:12.649Z,16.76
2019-05-12T01:07:05.683Z,15.94
2019-05-12T01:10:13.397Z,15.38
2019-05-12T01:18:18.175Z,14.29
2019-05-12T01:21:03.495Z,13.85
2019-05-12T01:24:38.381Z,16.21
2019-05-12T01:28:48.758Z,16.70
2019-05-12T01:39:33.536Z,13.90
2019-05-12T01:43:08.841Z,13.55
2019-05-12T01:46:28.778Z,17.03
2019-05-12T01:50:28.469Z,16.86
2019-05-12T01:53:14.021Z,15.24
2019-05-12T01:55:54.983Z,14.55
2019-05-12T01:58:39.519Z,14.03
2019-05-12T02:02:31.228Z,13.62
2019-05-12T02:06:15.054Z,13.15
2019-05-12T02:12:14.187Z,12.38
2019-05-12T02:14:53.564Z,14.76
2019-05-12T02:17:28.308Z,17.87
2019-05-12T02:20:03.332Z,16.99
2019-05-12T02:22:38.913Z,15.73
2019-05-12T02:25:13.001Z,14.83
2019-05-12T02:59:06.651Z,12.69
2019-05-12T03:09:30.172Z,14.14
2019-05-12T03:12:44.710Z,17.34
2019-05-12T03:23:39.384Z,13.27
2019-05-12T03:26:24.623Z,12.65
2019-05-12T03:29:05.703Z,12.27
2019-05-12T03:31:48.623Z,11.96
2019-05-12T04:30:08.477Z,12.44
2019-05-12T04:32:45.218Z,11.96
2019-05-12T04:35:19.315Z,14.38
2019-05-12T04:37:55.350Z,17.21
2019-05-12T04:40:49.228Z,16.06
2019-05-12T04:47:45.999Z,13.53
2019-05-12T04:50:24.541Z,12.84
2019-05-12T04:53:18.825Z,12.39
2019-05-12T04:56:07.433Z,11.93
2019-05-12T04:58:34.874Z,14.51
2019-05-12T05:01:17.892Z,17.22
2019-05-12T05:03:56.608Z,16.00
2019-05-12T05:06:35.723Z,14.65
2019-05-12T05:09:14.418Z,13.79
2019-05-12T05:11:48.338Z,13.13
2019-05-12T05:14:24.910Z,12.62
2019-05-12T05:17:00.999Z,12.20
2019-05-12T05:19:36.403Z,11.82
2019-05-12T05:22:47.581Z,14.48
2019-05-12T05:26:04.395Z,16.77
2019-05-12T05:38:51.059Z,12.27
2019-05-12T05:41:29.449Z,11.83
2019-05-12T06:32:11.273Z,13.11
2019-05-12T06:34:46.087Z,12.62
2019-05-12T06:37:57.352Z,15.01
2019-05-12T06:40:46.316Z,15.83
2019-05-12T06:43:33.598Z,14.45
2019-05-12T06:46:11.793Z,13.56
2019-05-12T06:49:10.258Z,12.97
2019-05-12T06:52:00.774Z,15.69
2019-05-12T06:54:34.455Z,16.44
2019-05-12T06:57:22.109Z,15.07
2019-05-12T07:00:08.766Z,14.13
2019-05-12T07:02:55.128Z,13.32
2019-05-12T07:05:50.386Z,12.87
2019-05-12T07:08:32.806Z,16.01
2019-05-12T07:11:07.700Z,18.60
2019-05-12T07:13:46.648Z,17.34
2019-05-12T07:16:29.515Z,15.89
2019-05-12T07:19:29.701Z,14.88
2019-05-12T07:50:58.442Z,17.19
2019-05-12T07:53:30.195Z,15.80
2019-05-12T07:56:07.190Z,14.80
2019-05-12T07:58:47.458Z,14.08
2019-05-12T08:01:18.418Z,13.56
2019-05-12T08:03:57.337Z,15.79
2019-05-12T08:06:34.615Z,16.66
2019-05-12T08:09:13.450Z,15.52
2019-05-12T08:12:19.066Z,14.56
2019-05-12T08:15:15.839Z,13.83
2019-05-12T08:17:59.679Z,13.28
2019-05-12T08:21:07.300Z,16.04
2019-05-12T08:23:48.619Z,17.01
2019-05-12T08:40:10.203Z,16.67
2019-05-12T08:54:11.029Z,13.58
2019-05-12T09:13:43.225Z,17.22
2019-05-12T09:46:03.799Z,14.52
2019-05-12T09:55:17.892Z,17.52
2019-05-12T10:07:19.465Z,13.87
2019-05-12T10:09:55.132Z,16.24
2019-05-12T10:12:36.601Z,17.38
2019-05-12T10:15:06.889Z,16.18
2019-05-12T10:17:40.543Z,15.25
2019-05-12T10:20:15.204Z,14.59
2019-05-12T10:22:49.761Z,14.10
2019-05-12T10:25:28.504Z,16.55
2019-05-12T10:28:02.991Z,17.49
2019-05-12T10:30:34.405Z,16.34
2019-05-12T10:33:07.940Z,15.42
2019-05-12T10:35:43.667Z,14.75
2019-05-12T10:38:16.407Z,14.29
2019-05-12T10:40:51.122Z,16.76
2019-05-12T10:43:24.936Z,17.59
2019-05-12T10:46:07.215Z,16.46
2019-05-12T10:51:53.981Z,14.76
2019-05-12T10:54:28.696Z,14.25
2019-05-12T10:57:05.053Z,13.90
2019-05-12T10:59:43.397Z,16.48
2019-05-12T11:02:14.003Z,17.49
2019-05-12T11:04:49.067Z,16.36
2019-05-12T11:07:28.005Z,15.45
2019-05-12T11:10:05.594Z,14.79
2019-05-12T11:12:36.388Z,14.29
2019-05-12T11:27:34.399Z,16.96
2019-05-12T11:45:44.202Z,18.52
2019-05-12T11:48:46.323Z,18.21
2019-05-12T11:58:33.508Z,14.91
2019-05-12T12:01:17.879Z,14.55
2019-05-12T12:03:54.502Z,14.24
2019-05-12T12:06:33.166Z,13.98
2019-05-12T12:09:15.494Z,16.89
2019-05-12T12:11:45.189Z,17.46
2019-05-12T12:14:20.045Z,16.42
2019-05-12T12:16:54.459Z,15.65
2019-05-12T12:19:37.830Z,15.13
2019-05-12T12:22:05.228Z,14.69
2019-05-12T12:36:04.253Z,17.70
2019-05-12T12:38:38.266Z,16.59
2019-05-12T12:41:13.186Z,15.86
2019-05-12T12:43:47.137Z,15.35
2019-05-12T12:46:24.697Z,14.94
2019-05-12T12:49:00.163Z,14.63
2019-05-12T12:51:34.340Z,14.36
2019-05-12T12:54:08.264Z,14.11
2019-05-12T12:56:43.110Z,16.58
2019-05-12T12:59:17.109Z,17.83
2019-05-12T13:01:51.128Z,16.83
2019-05-12T13:04:24.903Z,15.96
2019-05-12T13:06:58.672Z,15.41
2019-05-12T13:09:33.514Z,15.00
2019-05-12T13:12:14.307Z,14.63
2019-05-12T13:14:44.319Z,14.32
2019-05-12T13:17:20.034Z,14.05
2019-05-12T13:19:58.553Z,13.83
2019-05-12T13:22:29.799Z,13.59
2019-05-12T13:25:08.593Z,13.35
2019-05-12T13:27:40.479Z,16.01
2019-05-12T13:30:21.144Z,17.07
2019-05-12T13:32:55.857Z,16.00
2019-05-12T13:35:43.564Z,15.17
2019-05-12T13:38:17.033Z,14.59
2019-05-12T13:40:50.535Z,14.20
2019-05-12T13:43:25.938Z,13.89
2019-05-12T13:45:59.488Z,13.63
2019-05-12T13:48:34.032Z,13.38
2019-05-12T13:51:13.195Z,13.18
2019-05-12T13:53:53.784Z,15.79
2019-05-12T13:56:32.808Z,16.93
2019-05-12T14:11:38.938Z,13.80
2019-05-12T14:30:24.387Z,12.67
2019-05-12T14:33:18.450Z,12.55
2019-05-12T15:09:36.345Z,13.60
2019-05-12T15:16:40.421Z,13.39
2019-05-12T15:23:32.336Z,13.21
2019-05-12T15:26:29.646Z,13.14
2019-05-12T15:29:56.373Z,13.08
2019-05-12T15:36:07.507Z,12.97
2019-05-12T15:38:43.715Z,12.93
2019-05-12T15:42:09.183Z,12.87
2019-05-12T15:53:35.847Z,12.69
2019-05-12T15:56:14.989Z,12.66
2019-05-12T15:58:45.551Z,12.63
2019-05-12T16:01:21.316Z,12.59
2019-05-12T16:14:25.126Z,12.42
2019-05-12T16:17:27.142Z,12.42
2019-05-12T16:20:00.712Z,12.39
2019-05-12T16:22:36.835Z,12.38
2019-05-12T16:25:10.865Z,12.38
2019-05-12T16:27:45.274Z,12.35
2019-05-12T16:30:20.272Z,12.32
2019-05-12T16:32:55.021Z,15.34
2019-05-12T16:35:31.746Z,16.69
2019-05-12T16:38:06.012Z,15.77
2019-05-12T16:40:45.566Z,15.08
2019-05-12T16:43:16.550Z,14.63
2019-05-12T16:45:50.309Z,14.31
2019-05-12T16:48:33.071Z,14.11
2019-05-12T16:51:03.163Z,13.93
2019-05-12T16:53:36.819Z,13.77
2019-05-12T16:56:10.690Z,13.65
2019-05-12T16:58:44.638Z,13.52
2019-05-12T17:01:19.381Z,13.41
2019-05-12T17:03:54.712Z,13.30
2019-05-12T17:06:33.880Z,13.20
2019-05-12T17:09:05.030Z,13.10
2019-05-12T17:11:47.309Z,12.97
2019-05-12T17:14:13.825Z,12.92
2019-05-12T17:16:48.964Z,15.51
2019-05-12T17:19:23.658Z,19.49
2019-05-12T17:21:59.403Z,19.31
2019-05-12T17:24:34.253Z,17.84
2019-05-12T17:27:09.141Z,16.84
2019-05-12T17:29:43.497Z,16.20
2019-05-12T17:32:16.806Z,15.73
2019-05-12T17:34:50.215Z,15.38
2019-05-12T17:37:23.930Z,15.07
2019-05-12T17:39:57.300Z,14.77
2019-05-12T17:42:33.290Z,14.56
2019-05-12T17:45:09.397Z,14.32
2019-05-12T17:47:41.279Z,14.11
2019-05-12T17:50:14.959Z,13.92
2019-05-12T17:52:50.362Z,13.76
2019-05-12T17:55:23.312Z,16.13
2019-05-12T17:57:57.906Z,19.80
2019-05-12T18:00:33.548Z,19.62
2019-05-12T18:03:18.143Z,18.12
2019-05-12T18:05:47.548Z,17.10
2019-05-12T18:08:17.513Z,16.39
2019-05-12T18:10:54.284Z,15.91
2019-05-12T18:13:28.178Z,15.53
2019-05-12T18:16:05.580Z,15.18
2019-05-12T18:18:43.400Z,14.88
2019-05-12T18:21:22.116Z,14.63
2019-05-12T18:23:53.664Z,14.36
2019-05-12T18:26:27.367Z,14.14
2019-05-12T18:29:03.881Z,13.90
2019-05-12T18:31:36.697Z,16.36
2019-05-12T18:34:10.422Z,20.22
2019-05-12T18:36:49.024Z,19.97
2019-05-12T18:39:19.836Z,18.35
2019-05-12T18:41:54.605Z,17.28
2019-05-12T18:44:31.734Z,16.55
2019-05-12T18:47:07.925Z,15.98
2019-05-12T18:49:47.811Z,15.55
2019-05-12T18:52:23.770Z,15.15
2019-05-12T18:54:58.006Z,14.80
2019-05-12T18:57:39.016Z,14.52
2019-05-12T19:00:19.450Z,14.24
2019-05-12T19:02:54.617Z,13.97
2019-05-12T19:05:30.967Z,13.75
2019-05-12T19:08:04.815Z,16.25
2019-05-12T19:10:45.990Z,20.10
2019-05-12T19:13:14.645Z,19.74
2019-05-12T19:15:52.616Z,18.15
2019-05-12T19:18:32.345Z,17.04
2019-05-12T19:21:01.271Z,16.29
2019-05-12T19:23:37.618Z,15.73
2019-05-12T19:26:13.549Z,15.32
2019-05-12T19:28:52.823Z,14.96
2019-05-12T19:31:24.767Z,14.62
2019-05-12T19:34:15.724Z,14.32
2019-05-12T19:36:45.012Z,14.01
2019-05-12T19:39:11.843Z,13.75
2019-05-12T19:41:46.053Z,13.52
2019-05-12T19:44:19.904Z,13.30
2019-05-12T19:46:54.632Z,15.89
2019-05-12T19:49:28.387Z,19.38
2019-05-12T19:52:03.652Z,19.03
2019-05-12T19:54:38.131Z,17.49
2019-05-12T19:57:15.599Z,16.44
2019-05-12T19:59:50.969Z,15.72
2019-05-12T20:02:23.687Z,15.21
2019-05-12T20:04:57.181Z,14.79
2019-05-12T20:07:33.726Z,14.43
2019-05-12T20:10:06.641Z,14.08
2019-05-12T20:12:40.072Z,13.82
2019-05-12T20:15:15.019Z,13.52
2019-05-12T20:17:48.921Z,13.31
2019-05-12T20:20:28.850Z,15.74
2019-05-12T20:22:57.493Z,19.39
2019-05-12T20:25:31.002Z,19.04
2019-05-12T20:28:11.020Z,17.48
2019-05-12T20:30:39.436Z,16.39
2019-05-12T20:33:13.774Z,15.68
2019-05-12T20:35:49.201Z,15.13
2019-05-12T20:38:25.486Z,14.66
2019-05-12T20:40:58.119Z,14.28
2019-05-12T20:43:37.179Z,13.93
2019-05-12T20:46:06.585Z,13.63
2019-05-12T20:48:40.019Z,13.38
2019-05-12T20:51:15.310Z,13.11
2019-05-12T20:53:48.570Z,15.55
2019-05-12T20:56:24.720Z,19.10
2019-05-12T20:58:58.315Z,18.75
2019-05-12T21:01:33.610Z,17.25
2019-05-12T21:04:07.885Z,16.20
2019-05-12T21:06:43.141Z,15.46
2019-05-12T21:09:16.672Z,14.97
2019-05-12T21:11:50.173Z,14.55
2019-05-12T21:14:24.091Z,14.17
2019-05-12T21:16:57.615Z,13.86
2019-05-12T21:19:37.946Z,13.55
2019-05-12T21:22:06.157Z,13.31
2019-05-12T21:24:39.600Z,15.63
2019-05-12T21:27:15.731Z,19.37
2019-05-12T21:29:48.166Z,19.00
2019-05-12T21:32:24.034Z,17.45
2019-05-12T21:34:57.906Z,16.35
2019-05-12T21:37:37.045Z,15.62
2019-05-12T21:40:08.637Z,15.10
2019-05-12T21:42:44.320Z,14.66
2019-05-12T21:45:23.778Z,14.27
2019-05-12T21:47:56.304Z,13.90
2019-05-12T21:50:32.693Z,13.62
2019-05-12T21:53:04.332Z,13.34
2019-05-12T21:55:37.935Z,13.08
2019-05-12T21:58:12.904Z,12.84
2019-05-12T22:00:59.564Z,12.63
2019-05-12T22:03:27.939Z,12.39
2019-05-12T22:06:06.466Z,12.23
2019-05-12T22:08:36.473Z,12.01
2019-05-12T22:11:11.750Z,11.83
2019-05-12T22:13:54.873Z,14.15
2019-05-12T22:16:20.577Z,18.11
2019-05-12T22:18:59.045Z,17.93
2019-05-12T22:21:29.450Z,16.41
2019-05-12T22:24:06.181Z,15.37
2019-05-12T22:26:40.371Z,14.63
2019-05-12T22:29:13.977Z,14.14
2019-05-12T22:31:48.298Z,13.72
2019-05-12T22:34:27.365Z,13.38
2019-05-12T22:36:59.243Z,13.07
2019-05-12T22:39:33.896Z,12.79
2019-05-12T22:42:11.629Z,12.55
2019-05-12T22:44:43.754Z,12.29
2019-05-12T22:47:17.963Z,12.08
2019-05-12T22:49:55.330Z,11.90
2019-05-12T22:52:26.577Z,11.73
2019-05-12T22:55:00.034Z,11.56
2019-05-12T22:57:38.300Z,11.39
2019-05-12T23:00:13.523Z,11.27
2019-05-12T23:02:46.596Z,11.11
2019-05-12T23:05:20.704Z,11.04
2019-05-12T23:07:54.537Z,10.91
2019-05-12T23:10:28.223Z,10.83
2019-05-12T23:13:04.746Z,13.42
2019-05-12T23:15:42.286Z,17.55
2019-05-12T23:18:12.254Z,17.37
2019-05-12T23:20:45.724Z,15.86
2019-05-12T23:23:19.160Z,14.80
2019-05-12T23:26:00.194Z,14.13
2019-05-12T23:28:27.960Z,13.65
2019-05-12T23:31:01.491Z,13.27
2019-05-12T23:33:36.605Z,12.99
2019-05-12T23:36:15.834Z,12.69
2019-05-12T23:38:51.996Z,12.45
2019-05-12T23:41:23.796Z,12.21
2019-05-12T23:43:57.326Z,11.98
2019-05-12T23:46:30.821Z,11.82
2019-05-12T23:49:04.323Z,11.62
2019-05-12T23:51:37.853Z,11.46
2019-05-12T23:54:11.293Z,11.29
2019-05-12T23:56:44.810Z,11.17
2019-05-12T23:59:18.301Z,11.01
